Filia Ariea — PIET — position and weather

sailwx.info

Track history (hours):
 
Tides and Currents Weather Stations Pressure Air Temp Water Temp Dewpoint Dewpoint Depression Visibility Wind Speed Wind Dir Waves Ship Positions

Filia Ariea

Last reported at 2015-Jul-02 09:28 UTC. Time now 2015-Jul-02 09:51 UTC.
Position N 51°53' E 004°21'.

Length 90 m; draft 3.2 m.

Type: Cargo ship. MMSI: 244662000.

Date/timePositionNaut miles runAvg speedWind from/ knotsBaromVisibWave heightAir tempDewpointWater temp
2015-Jul-02 09:28N 51°53' E 004°21'0 0.0
2015-Jul-02 08:33N 51°53' E 004°21'0 0.0
2015-Jul-02 07:33N 51°53' E 004°21'0 0.0
2015-Jul-02 06:32N 51°53' E 004°21'0 0.0
2015-Jul-02 05:32N 51°53' E 004°21'0 0.0
2015-Jul-02 04:31N 51°53' E 004°21'0 0.0
2015-Jul-02 03:31N 51°53' E 004°21'0 0.0
2015-Jul-02 02:31N 51°53' E 004°21'0 0.0
2015-Jul-02 01:33N 51°53' E 004°21'0 0.0
2015-Jul-02 00:33N 51°53' E 004°21'0 0.0
2015-Jul-01 23:26N 51°53' E 004°21'0 0.0
2015-Jul-01 22:32N 51°53' E 004°21'0 0.0
2015-Jul-01 21:33N 51°53' E 004°21'7 6.9
2015-Jul-01 20:33N 51°57' E 004°11'9 8.8
2015-Jul-01 19:33N 51°60' E 003°58'1010.3
2015-Jul-01 18:33N 51°58' E 003°41'4410.6
2015-Jul-01 14:25N 51°32' E 002°43'1011.6
2015-Jul-01 13:33N 51°24' E 002°33'1312.8
2015-Jul-01 12:33N 51°18' E 002°16'1211.7
2015-Jul-01 11:33N 51°12' E 001°60'1110.4
2015-Jul-01 10:29N 51°05' E 001°46'1212.8
2015-Jul-01 09:34N 50°56' E 001°33'1111.4
2015-Jul-01 08:34N 50°47' E 001°23'64 9.1
2015-Jul-01 01:34N 50°19' W 000°08'8 8.2
2015-Jul-01 00:33N 50°17' W 000°20'8 8.2
2015-Jun-30 23:34N 50°14' W 000°32'9 8.8
2015-Jun-30 22:33N 50°11' W 000°45'10 9.8
2015-Jun-30 21:34N 50°08' W 000°60'1111.5
2015-Jun-30 20:34N 50°05' W 001°17'1212.3
2015-Jun-30 19:33N 50°02' W 001°36'1313.2
2015-Jun-30 18:33N 49°58' W 001°56'1414.1
2015-Jun-30 17:32N 49°55' W 002°17'1212.4
2015-Jun-30 16:32N 49°51' W 002°36'14110.0
2015-Jun-30 02:29N 48°18' W 005°18'1312.1
2015-Jun-30 01:24N 48°06' W 005°12'1011.6
2015-Jun-30 00:33N 47°60' W 005°01'1211.8
2015-Jun-29 23:34N 47°53' W 004°46'1111.4
2015-Jun-29 22:33N 47°47' W 004°32'1211.5
2015-Jun-29 21:29N 47°40' W 004°17'1111.4
2015-Jun-29 20:33N 47°34' W 004°04'1111.1
2015-Jun-29 19:34N 47°29' W 003°50'1111.0
2015-Jun-29 18:34N 47°23' W 003°36'1110.7
2015-Jun-29 17:34N 47°18' W 003°22'1110.5
2015-Jun-29 16:33N 47°13' W 003°08'1111.0
2015-Jun-29 15:34N 47°10' W 002°53'1110.5
2015-Jun-29 14:34N 47°08' W 002°38'1010.4
2015-Jun-29 13:34N 47°08' W 002°22'10 9.7
2015-Jun-29 12:32N 47°15' W 002°13'3 3.4
2015-Jun-29 11:33N 47°18' W 002°09'0 0.0
2015-Jun-29 10:33N 47°18' W 002°09'0 0.0
2015-Jun-29 09:33N 47°18' W 002°09'0 0.0
2015-Jun-29 08:33N 47°18' W 002°09'0 0.0
2015-Jun-29 07:32N 47°18' W 002°09'0 0.0
2015-Jun-29 06:32N 47°18' W 002°09'0 0.0
2015-Jun-29 05:31N 47°18' W 002°09'0 0.0
2015-Jun-29 04:31N 47°18' W 002°09'0 0.0
2015-Jun-29 03:27N 47°18' W 002°09'0 0.0
2015-Jun-29 02:33N 47°18' W 002°09'0 0.0
2015-Jun-29 01:26N 47°18' W 002°09'0 0.0
2015-Jun-29 00:32N 47°18' W 002°09'0 0.0
2015-Jun-28 23:32N 47°18' W 002°09'0 0.0
2015-Jun-28 22:19N 47°18' W 002°09'0 0.0
2015-Jun-28 21:31N 47°18' W 002°09'0 0.0
2015-Jun-28 20:33N 47°18' W 002°09'0 0.0
2015-Jun-28 19:24N 47°18' W 002°09'0 0.0
2015-Jun-28 17:29N 47°18' W 002°09'0 0.0
2015-Jun-28 16:13N 47°18' W 002°09'0 0.0
2015-Jun-28 15:31N 47°18' W 002°09'0 0.0
2015-Jun-28 09:29N 47°18' W 002°09'0 0.0
2015-Jun-28 08:28N 47°18' W 002°09'0 0.0
2015-Jun-28 07:28N 47°18' W 002°09'0 0.0
2015-Jun-28 06:30N 47°18' W 002°09'0 0.0
2015-Jun-28 05:30N 47°18' W 002°09'0 0.0
2015-Jun-28 04:23N 47°18' W 002°09'0 0.0
2015-Jun-28 03:32N 47°18' W 002°09'0 0.0
2015-Jun-28 02:32N 47°18' W 002°09'0 0.0
2015-Jun-28 01:31N 47°18' W 002°09'0 0.0
2015-Jun-28 00:31N 47°18' W 002°09'0 0.0
2015-Jun-27 23:33N 47°18' W 002°09'0 0.0
2015-Jun-27 22:33N 47°18' W 002°09'0 0.0
2015-Jun-27 21:32N 47°18' W 002°09'0 0.0
2015-Jun-27 20:29N 47°18' W 002°09'0 0.0
2015-Jun-27 19:32N 47°18' W 002°09'12 1.9
2015-Jun-27 13:10N 47°08' W 002°21'7 8.5
2015-Jun-27 12:23N 47°03' W 002°27'1010.1
2015-Jun-27 11:23N 46°53' W 002°30'911.2
2015-Jun-27 10:33N 46°44' W 002°32'4611.3
2015-Jun-27 06:30N 45°59' W 002°41'7011.2
2015-Jun-27 00:18N 44°49' W 002°49'911.4
2015-Jun-26 23:33N 44°41' W 002°49'1711.5
2015-Jun-26 22:04N 44°24' W 002°52'1111.6
2015-Jun-26 21:09N 44°13' W 002°54'53 4.5
2015-Jun-26 09:21N 43°20' W 003°02'0 0.0
2015-Jun-26 05:20N 43°20' W 003°02'4 4.5
2015-Jun-26 04:27N 43°24' W 003°05'56 9.4
2015-Jun-25 22:30N 44°17' W 003°29'5410.5
2015-Jun-25 17:23N 45°08' W 003°55'910.4
2015-Jun-25 16:33N 45°16' W 003°58'1110.6
2015-Jun-25 15:29N 45°27' W 004°03'1010.9
2015-Jun-25 14:34N 45°37' W 004°06'3411.0
2015-Jun-25 11:29N 46°09' W 004°20'1111.5
2015-Jun-25 10:32N 46°20' W 004°25'1111.6
2015-Jun-25 09:34N 46°30' W 004°29'1312.1
2015-Jun-25 08:29N 46°43' W 004°35'1111.5
2015-Jun-25 07:33N 46°53' W 004°40'3811.5
2015-Jun-25 04:13N 47°29' W 004°57'811.7
2015-Jun-25 03:33N 47°37' W 005°01'1211.8
2015-Jun-25 02:33N 47°48' W 005°06'1212.1
2015-Jun-25 01:33N 47°59' W 005°12'15410.2
2015-Jun-24 10:28N 49°59' W 002°44'1111.4
2015-Jun-24 09:28N 50°03' W 002°27'1212.4
2015-Jun-24 08:31N 50°07' W 002°10'1313.3
2015-Jun-24 07:32N 50°12' W 001°51'4213.3
2015-Jun-24 04:23N 50°22' W 000°47'911.4
2015-Jun-24 03:34N 50°25' W 000°33'1210.7
2015-Jun-24 02:29N 50°29' W 000°16'910.2
2015-Jun-24 01:33N 50°32' W 000°02'1210.1
2015-Jun-24 00:22N 50°35' E 000°16'910.9
2015-Jun-23 23:34N 50°38' E 000°29'1211.8
2015-Jun-23 22:34N 50°44' E 000°45'1312.4
2015-Jun-23 21:32N 50°51' E 001°02'1212.2
2015-Jun-23 20:34N 50°59' E 001°16'1211.6
2015-Jun-23 19:34N 51°06' E 001°31'511.0
2015-Jun-23 19:06N 51°10' E 001°37'136 5.8
2015-Jun-22 19:33N 52°28' E 004°36'0 0.0
2015-Jun-22 18:33N 52°28' E 004°36'0 0.0
2015-Jun-22 17:29N 52°28' E 004°36'0 0.0
2015-Jun-22 16:32N 52°28' E 004°36'0 0.0
2015-Jun-22 15:31N 52°28' E 004°36'0 0.0
2015-Jun-22 14:31N 52°28' E 004°36'0 0.0
2015-Jun-22 13:34N 52°28' E 004°36'0 0.0
2015-Jun-22 12:33N 52°28' E 004°36'0 0.0
2015-Jun-22 11:33N 52°28' E 004°36'0 0.0
2015-Jun-22 10:32N 52°28' E 004°36'0 0.0
2015-Jun-22 09:32N 52°28' E 004°36'  
Track history (hours):
 
Tides and Currents Weather Stations Pressure Air Temp Water Temp Dewpoint Dewpoint Depression Visibility Wind Speed Wind Dir Waves Ship Positions

Filia Ariea

Last reported at 2015-Jul-02 09:28 UTC. Time now 2015-Jul-02 09:51 UTC.
Position N 51°53' E 004°21'.

Length 90 m; draft 3.2 m.

Type: Cargo ship. MMSI: 244662000.

Date/timePositionNaut miles runAvg speedWind from/ knotsBaromVisibWave heightAir tempDewpointWater temp
2015-Jul-02 09:28N 51°53' E 004°21'0 0.0
2015-Jul-02 08:33N 51°53' E 004°21'0 0.0
2015-Jul-02 07:33N 51°53' E 004°21'0 0.0
2015-Jul-02 06:32N 51°53' E 004°21'0 0.0
2015-Jul-02 05:32N 51°53' E 004°21'0 0.0
2015-Jul-02 04:31N 51°53' E 004°21'0 0.0
2015-Jul-02 03:31N 51°53' E 004°21'0 0.0
2015-Jul-02 02:31N 51°53' E 004°21'0 0.0
2015-Jul-02 01:33N 51°53' E 004°21'0 0.0
2015-Jul-02 00:33N 51°53' E 004°21'0 0.0
2015-Jul-01 23:26N 51°53' E 004°21'0 0.0
2015-Jul-01 22:32N 51°53' E 004°21'0 0.0
2015-Jul-01 21:33N 51°53' E 004°21'7 6.9
2015-Jul-01 20:33N 51°57' E 004°11'9 8.8
2015-Jul-01 19:33N 51°60' E 003°58'1010.3
2015-Jul-01 18:33N 51°58' E 003°41'4410.6
2015-Jul-01 14:25N 51°32' E 002°43'1011.6
2015-Jul-01 13:33N 51°24' E 002°33'1312.8
2015-Jul-01 12:33N 51°18' E 002°16'1211.7
2015-Jul-01 11:33N 51°12' E 001°60'1110.4
2015-Jul-01 10:29N 51°05' E 001°46'1212.8
2015-Jul-01 09:34N 50°56' E 001°33'1111.4
2015-Jul-01 08:34N 50°47' E 001°23'64 9.1
2015-Jul-01 01:34N 50°19' W 000°08'8 8.2
2015-Jul-01 00:33N 50°17' W 000°20'8 8.2
2015-Jun-30 23:34N 50°14' W 000°32'9 8.8
2015-Jun-30 22:33N 50°11' W 000°45'10 9.8
2015-Jun-30 21:34N 50°08' W 000°60'1111.5
2015-Jun-30 20:34N 50°05' W 001°17'1212.3
2015-Jun-30 19:33N 50°02' W 001°36'1313.2
2015-Jun-30 18:33N 49°58' W 001°56'1414.1
2015-Jun-30 17:32N 49°55' W 002°17'1212.4
2015-Jun-30 16:32N 49°51' W 002°36'14110.0
2015-Jun-30 02:29N 48°18' W 005°18'1312.1
2015-Jun-30 01:24N 48°06' W 005°12'1011.6
2015-Jun-30 00:33N 47°60' W 005°01'1211.8
2015-Jun-29 23:34N 47°53' W 004°46'1111.4
2015-Jun-29 22:33N 47°47' W 004°32'1211.5
2015-Jun-29 21:29N 47°40' W 004°17'1111.4
2015-Jun-29 20:33N 47°34' W 004°04'1111.1
2015-Jun-29 19:34N 47°29' W 003°50'1111.0
2015-Jun-29 18:34N 47°23' W 003°36'1110.7
2015-Jun-29 17:34N 47°18' W 003°22'1110.5
2015-Jun-29 16:33N 47°13' W 003°08'1111.0
2015-Jun-29 15:34N 47°10' W 002°53'1110.5
2015-Jun-29 14:34N 47°08' W 002°38'1010.4
2015-Jun-29 13:34N 47°08' W 002°22'10 9.7
2015-Jun-29 12:32N 47°15' W 002°13'3 3.4
2015-Jun-29 11:33N 47°18' W 002°09'0 0.0
2015-Jun-29 10:33N 47°18' W 002°09'0 0.0
2015-Jun-29 09:33N 47°18' W 002°09'0 0.0
2015-Jun-29 08:33N 47°18' W 002°09'0 0.0
2015-Jun-29 07:32N 47°18' W 002°09'0 0.0
2015-Jun-29 06:32N 47°18' W 002°09'0 0.0
2015-Jun-29 05:31N 47°18' W 002°09'0 0.0
2015-Jun-29 04:31N 47°18' W 002°09'0 0.0
2015-Jun-29 03:27N 47°18' W 002°09'0 0.0
2015-Jun-29 02:33N 47°18' W 002°09'0 0.0
2015-Jun-29 01:26N 47°18' W 002°09'0 0.0
2015-Jun-29 00:32N 47°18' W 002°09'0 0.0
2015-Jun-28 23:32N 47°18' W 002°09'0 0.0
2015-Jun-28 22:19N 47°18' W 002°09'0 0.0
2015-Jun-28 21:31N 47°18' W 002°09'0 0.0
2015-Jun-28 20:33N 47°18' W 002°09'0 0.0
2015-Jun-28 19:24N 47°18' W 002°09'0 0.0
2015-Jun-28 17:29N 47°18' W 002°09'0 0.0
2015-Jun-28 16:13N 47°18' W 002°09'0 0.0
2015-Jun-28 15:31N 47°18' W 002°09'0 0.0
2015-Jun-28 09:29N 47°18' W 002°09'0 0.0
2015-Jun-28 08:28N 47°18' W 002°09'0 0.0
2015-Jun-28 07:28N 47°18' W 002°09'0 0.0
2015-Jun-28 06:30N 47°18' W 002°09'0 0.0
2015-Jun-28 05:30N 47°18' W 002°09'0 0.0
2015-Jun-28 04:23N 47°18' W 002°09'0 0.0
2015-Jun-28 03:32N 47°18' W 002°09'0 0.0
2015-Jun-28 02:32N 47°18' W 002°09'0 0.0
2015-Jun-28 01:31N 47°18' W 002°09'0 0.0
2015-Jun-28 00:31N 47°18' W 002°09'0 0.0
2015-Jun-27 23:33N 47°18' W 002°09'0 0.0
2015-Jun-27 22:33N 47°18' W 002°09'0 0.0
2015-Jun-27 21:32N 47°18' W 002°09'0 0.0
2015-Jun-27 20:29N 47°18' W 002°09'0 0.0
2015-Jun-27 19:32N 47°18' W 002°09'12 1.9
2015-Jun-27 13:10N 47°08' W 002°21'7 8.5
2015-Jun-27 12:23N 47°03' W 002°27'1010.1
2015-Jun-27 11:23N 46°53' W 002°30'911.2
2015-Jun-27 10:33N 46°44' W 002°32'4611.3
2015-Jun-27 06:30N 45°59' W 002°41'7011.2
2015-Jun-27 00:18N 44°49' W 002°49'911.4
2015-Jun-26 23:33N 44°41' W 002°49'1711.5
2015-Jun-26 22:04N 44°24' W 002°52'1111.6
2015-Jun-26 21:09N 44°13' W 002°54'53 4.5
2015-Jun-26 09:21N 43°20' W 003°02'0 0.0
2015-Jun-26 05:20N 43°20' W 003°02'4 4.5
2015-Jun-26 04:27N 43°24' W 003°05'56 9.4
2015-Jun-25 22:30N 44°17' W 003°29'5410.5
2015-Jun-25 17:23N 45°08' W 003°55'910.4
2015-Jun-25 16:33N 45°16' W 003°58'1110.6
2015-Jun-25 15:29N 45°27' W 004°03'1010.9
2015-Jun-25 14:34N 45°37' W 004°06'3411.0
2015-Jun-25 11:29N 46°09' W 004°20'1111.5
2015-Jun-25 10:32N 46°20' W 004°25'1111.6
2015-Jun-25 09:34N 46°30' W 004°29'1312.1
2015-Jun-25 08:29N 46°43' W 004°35'1111.5
2015-Jun-25 07:33N 46°53' W 004°40'3811.5
2015-Jun-25 04:13N 47°29' W 004°57'811.7
2015-Jun-25 03:33N 47°37' W 005°01'1211.8
2015-Jun-25 02:33N 47°48' W 005°06'1212.1
2015-Jun-25 01:33N 47°59' W 005°12'15410.2
2015-Jun-24 10:28N 49°59' W 002°44'1111.4
2015-Jun-24 09:28N 50°03' W 002°27'1212.4
2015-Jun-24 08:31N 50°07' W 002°10'1313.3
2015-Jun-24 07:32N 50°12' W 001°51'4213.3
2015-Jun-24 04:23N 50°22' W 000°47'911.4
2015-Jun-24 03:34N 50°25' W 000°33'1210.7
2015-Jun-24 02:29N 50°29' W 000°16'910.2
2015-Jun-24 01:33N 50°32' W 000°02'1210.1
2015-Jun-24 00:22N 50°35' E 000°16'910.9
2015-Jun-23 23:34N 50°38' E 000°29'1211.8
2015-Jun-23 22:34N 50°44' E 000°45'1312.4
2015-Jun-23 21:32N 50°51' E 001°02'1212.2
2015-Jun-23 20:34N 50°59' E 001°16'1211.6
2015-Jun-23 19:34N 51°06' E 001°31'511.0
2015-Jun-23 19:06N 51°10' E 001°37'136 5.8
2015-Jun-22 19:33N 52°28' E 004°36'0 0.0
2015-Jun-22 18:33N 52°28' E 004°36'0 0.0
2015-Jun-22 17:29N 52°28' E 004°36'0 0.0
2015-Jun-22 16:32N 52°28' E 004°36'0 0.0
2015-Jun-22 15:31N 52°28' E 004°36'0 0.0
2015-Jun-22 14:31N 52°28' E 004°36'0 0.0
2015-Jun-22 13:34N 52°28' E 004°36'0 0.0
2015-Jun-22 12:33N 52°28' E 004°36'0 0.0
2015-Jun-22 11:33N 52°28' E 004°36'0 0.0
2015-Jun-22 10:32N 52°28' E 004°36'0 0.0
2015-Jun-22 09:32N 52°28' E 004°36'  

Dump ship's entire track history